SHREWSBURY RIVER AT SEA BRIGHT HADS current weather conditions

sailwx.info

Wind from 334 at 6 knots gusting 10

Air temperature 4.7° C
Dewpoint -4.6° C

Last reported at 2020-Jan-28 22:00 UTC.
Time now 2020-Jan-28 22:23 UTC

Location: N 40°22' W 073°58'.
View on Google Maps.

See reports from other nearby stations

  
Tides and Currents Weather Stations Pressure Air Temp Water Temp Dewpoint Dewpoint Depression Visibility Wind Speed Wind Dir Waves Ship Positions
date/time (UTC)wind fromknots sea level pressurealtimeterstation pressurevisibilityair tempwater tempwave heightnotes
2020-Jan-28 22:06 322 8 gusting 13 4.7
2020-Jan-28 22:00 334 6 gusting 10 4.7
2020-Jan-28 21:54 339 6 gusting 11 4.7
2020-Jan-28 21:48 340 7 gusting 10 4.8
2020-Jan-28 21:42 346 8 gusting 11 4.8
2020-Jan-28 21:36 352 8 gusting 15 4.8
2020-Jan-28 21:30 351 10 gusting 13 4.8
2020-Jan-28 21:24 344 9 gusting 13 4.8
2020-Jan-28 21:18 349 8 gusting 13 4.8
2020-Jan-28 21:12 343 9 gusting 14 4.8
2020-Jan-28 21:06 348 10 gusting 15 4.8
2020-Jan-28 21:00 344 10 gusting 15 4.9
2020-Jan-28 20:54 340 9 gusting 14 4.9
2020-Jan-28 20:48 329 7 gusting 12 5.0
2020-Jan-28 20:42 337 9 gusting 12 5.0
2020-Jan-28 20:36 346 9 gusting 15 5.1
2020-Jan-28 20:30 347 11 gusting 16 5.2
2020-Jan-28 20:24 345 9 gusting 14 5.2
2020-Jan-28 20:18 344 9 gusting 13 5.2
2020-Jan-28 20:12 350 11 gusting 18 5.3
2020-Jan-28 20:06 346 9 gusting 17 5.3
2020-Jan-28 20:00 008 13 gusting 19 5.4
2020-Jan-28 19:54 335 9 gusting 13 5.6
2020-Jan-28 19:48 339 7 gusting 11 5.6
2020-Jan-28 19:42 351 9 gusting 13 5.6
2020-Jan-28 19:36 354 11 gusting 18 5.8
2020-Jan-28 19:30 356 9 gusting 13 5.8
2020-Jan-28 19:24 355 8 gusting 12 5.9
2020-Jan-28 19:18 350 11 gusting 16 5.9
2020-Jan-28 19:12 347 11 gusting 17 5.9
2020-Jan-28 19:06 348 11 gusting 17 6.0
2020-Jan-28 19:00 350 9 gusting 15 6.1
2020-Jan-28 18:54 014 10 gusting 14 6.2
2020-Jan-28 18:48 337 9 gusting 15 6.5
2020-Jan-28 18:42 347 9 gusting 16 6.2
2020-Jan-28 18:36 6.0
2020-Jan-28 18:30 010 11 gusting 15 6.1
2020-Jan-28 18:24 003 9 gusting 13 6.1
2020-Jan-28 18:18 010 10 gusting 15 6.1
2020-Jan-28 18:12 347 6 gusting 11 6.3
2020-Jan-28 18:06 011 10 gusting 16 6.2
2020-Jan-28 18:00 352 5 gusting 9 6.3
2020-Jan-28 17:54 353 9 gusting 15 6.2
2020-Jan-28 17:48 357 7 gusting 11 6.1
2020-Jan-28 17:42 323 7 gusting 11 6.3
2020-Jan-28 17:36 341 7 gusting 11 6.2
2020-Jan-28 17:30 003 7 gusting 11 6.0
2020-Jan-28 17:24 354 8 gusting 12 6.0
2020-Jan-28 17:18 340 9 gusting 13 5.9
2020-Jan-28 17:12 347 7 gusting 12 5.8
2020-Jan-28 17:06 347 9 gusting 13 5.8
2020-Jan-28 17:00 350 8 gusting 14 5.7
2020-Jan-28 16:54 345 6 gusting 11 5.6
2020-Jan-28 16:48 332 7 gusting 10 5.6
2020-Jan-28 16:42 003 7 gusting 11 5.4
2020-Jan-28 16:36 338 6 gusting 11 5.4
2020-Jan-28 16:30 339 9 gusting 14 5.3
2020-Jan-28 16:24 337 9 gusting 16 5.1
2020-Jan-28 16:18 349 12 gusting 16 5.0
2020-Jan-28 16:12 006 12 gusting 19 5.0
2020-Jan-28 16:06 349 9 gusting 12 4.8
2020-Jan-28 16:00 345 7 gusting 12 4.9
2020-Jan-28 15:54 347 8 gusting 12 4.9
2020-Jan-28 15:48 345 8 gusting 14 4.6
2020-Jan-28 15:42 353 7 gusting 12 4.5
2020-Jan-28 15:36 350 8 gusting 11 4.4
2020-Jan-28 15:30 001 13 gusting 19 4.2
2020-Jan-28 15:24 350 9 gusting 14 4.3
2020-Jan-28 15:18 347 8 gusting 13 3.9
2020-Jan-28 15:12 349 10 gusting 16 3.8
2020-Jan-28 15:06 339 9 gusting 14 3.8
2020-Jan-28 15:00 342 9 gusting 15 3.8
2020-Jan-28 14:54 347 11 gusting 17 3.8
2020-Jan-28 14:48 339 8 gusting 12 3.8
2020-Jan-28 14:42 342 8 gusting 12 3.8
2020-Jan-28 14:36 347 6 gusting 9 3.7
2020-Jan-28 14:30 356 9 gusting 16 3.6
2020-Jan-28 14:24 341 9 gusting 14 3.7
2020-Jan-28 14:18 344 7 gusting 11 3.5
2020-Jan-28 14:12 337 3 gusting 7 3.5
2020-Jan-28 14:06 343 7 gusting 13 3.5
2020-Jan-28 14:00 327 7 gusting 13 3.5
2020-Jan-28 13:54 327 5 gusting 8 3.5
2020-Jan-28 13:48 323 6 gusting 11 3.4
2020-Jan-28 13:42 330 5 gusting 8 3.4
2020-Jan-28 13:36 336 7 gusting 13 3.4
2020-Jan-28 13:30 341 6 gusting 10 3.3
2020-Jan-28 13:24 334 5 gusting 7 3.3
2020-Jan-28 13:18 324 6 gusting 10 3.3
2020-Jan-28 13:12 314 6 gusting 9 3.3
2020-Jan-28 13:06 313 4 gusting 7 3.3
2020-Jan-28 13:00 329 7 gusting 11 3.3
2020-Jan-28 12:54 336 5 gusting 7 3.3
2020-Jan-28 12:48 329 5 gusting 9 3.3
2020-Jan-28 12:42 331 7 gusting 12 3.3
2020-Jan-28 12:36 323 6 gusting 9 3.3
2020-Jan-28 12:30 329 5 gusting 8 3.4
2020-Jan-28 12:24 335 8 gusting 11 3.4
2020-Jan-28 12:18 333 6 gusting 10 3.4
2020-Jan-28 12:12 339 7 gusting 11 3.4
2020-Jan-28 12:06 343 6 gusting 10 3.3
2020-Jan-28 12:00 336 6 gusting 9 3.3
2020-Jan-28 11:54 347 8 gusting 12 3.3
2020-Jan-28 11:48 328 6 gusting 9 3.3
2020-Jan-28 11:42 342 6 gusting 10 3.3
2020-Jan-28 11:36 327 6 gusting 12 3.4
2020-Jan-28 11:30 324 8 gusting 14 3.4
2020-Jan-28 11:24 318 6 gusting 11 3.4
2020-Jan-28 11:18 327 7 gusting 13 3.3
2020-Jan-28 11:12 336 9 gusting 13 3.3
2020-Jan-28 11:06 331 8 gusting 17 3.2
2020-Jan-28 11:00 333 8 gusting 10 3.2
2020-Jan-28 10:54 324 6 gusting 11 3.2
2020-Jan-28 10:48 328 9 gusting 14 3.2
2020-Jan-28 10:42 332 5 gusting 8 3.2
2020-Jan-28 10:36 315 6 gusting 11 3.2
2020-Jan-28 10:30 323 5 gusting 8 3.3
2020-Jan-28 10:24 332 8 gusting 12 3.3
2020-Jan-28 10:18 336 9 gusting 16 3.4
2020-Jan-28 10:12 330 8 gusting 13 3.4
2020-Jan-28 10:06 338 7 gusting 10 3.4
2020-Jan-28 10:00 331 8 gusting 11 3.4
2020-Jan-28 09:54 340 9 gusting 15 3.5
2020-Jan-28 09:48 346 8 gusting 13 3.5
2020-Jan-28 09:42 341 8 gusting 14 3.5
2020-Jan-28 09:36 329 8 gusting 14 3.6
2020-Jan-28 09:30 339 7 gusting 10 3.6
2020-Jan-28 09:24 337 5 gusting 8 3.7
2020-Jan-28 09:18 324 5 gusting 10 3.8
2020-Jan-28 09:12 342 7 gusting 11 3.8
2020-Jan-28 09:06 337 7 gusting 12 3.8
2020-Jan-28 09:00 330 5 gusting 7 3.9
2020-Jan-28 08:54 344 7 gusting 10 3.9
2020-Jan-28 08:48 324 5 gusting 8 3.9
2020-Jan-28 08:42 337 7 gusting 11 4.0
2020-Jan-28 08:36 325 4 gusting 7 4.0
2020-Jan-28 08:30 342 7 gusting 10 4.0
2020-Jan-28 08:24 335 5 gusting 8 4.0
2020-Jan-28 08:18 336 5 gusting 8 4.1
2020-Jan-28 08:12 335 5 gusting 12 4.1
2020-Jan-28 08:06 335 5 gusting 7 4.1
2020-Jan-28 08:00 344 7 gusting 11 4.1
2020-Jan-28 07:54 346 8 gusting 11 4.1
2020-Jan-28 07:48 345 8 gusting 11 4.2
2020-Jan-28 07:42 346 9 gusting 13 4.1
2020-Jan-28 07:36 350 8 gusting 12 4.2
2020-Jan-28 07:30 329 10 gusting 17 4.2
2020-Jan-28 07:24 353 10 gusting 14 4.2
2020-Jan-28 07:18 350 7 gusting 13 4.2
2020-Jan-28 07:12 353 8 gusting 10 4.3
2020-Jan-28 07:06 357 8 gusting 11 4.3
2020-Jan-28 07:00 351 7 gusting 9 4.3
2020-Jan-28 06:54 349 6 gusting 10 4.3
2020-Jan-28 06:48 351 5 gusting 8 4.3
2020-Jan-28 06:42 352 7 gusting 11 4.4
2020-Jan-28 06:36 354 5 gusting 11 4.4
2020-Jan-28 06:30 351 7 gusting 10 4.4
2020-Jan-28 06:24 349 8 gusting 13 4.5
2020-Jan-28 06:18 4.6
2020-Jan-28 06:12 352 7 gusting 10 4.6
2020-Jan-28 06:06 355 7 gusting 12 4.6
2020-Jan-28 06:00 349 8 gusting 11 4.6
2020-Jan-28 05:54 005 8 gusting 12 4.6
2020-Jan-28 05:48 356 8 gusting 13 4.7
2020-Jan-28 05:42 003 9 gusting 12 4.7
2020-Jan-28 05:36 006 6 gusting 9 4.8
2020-Jan-28 05:30 351 5 gusting 7 4.9
2020-Jan-28 05:24 006 8 gusting 11 4.9
2020-Jan-28 05:18 345 5 gusting 8 4.9
2020-Jan-28 05:12 003 5 gusting 8 4.9
2020-Jan-28 05:06 350 5 gusting 7 5.0
2020-Jan-28 05:00 342 3 gusting 5 5.0
2020-Jan-28 04:54 338 5 gusting 10 5.0
2020-Jan-28 04:48 337 5 gusting 9 5.0
2020-Jan-28 04:42 333 4 gusting 6 5.0
2020-Jan-28 04:36 337 4 gusting 7 5.0
2020-Jan-28 04:30 330 3 gusting 5 5.0
2020-Jan-28 04:24 320 3 gusting 6 5.0
2020-Jan-28 04:18 320 2 gusting 3 5.0
2020-Jan-28 04:12 316 3 gusting 6 5.0
2020-Jan-28 04:06 313 2 gusting 4 5.0
2020-Jan-28 04:00 302 3 gusting 5 5.0
2020-Jan-28 03:54 302 1 gusting 3 5.1
2020-Jan-28 03:48 300 2 gusting 4 5.1
2020-Jan-28 03:42 305 3 gusting 5 5.1
2020-Jan-28 03:36 310 2 gusting 3 5.2
2020-Jan-28 03:30 327 2 gusting 4 5.2
2020-Jan-28 03:24 329 3 gusting 4 5.2
2020-Jan-28 03:18 316 2 gusting 4 5.3
2020-Jan-28 03:12 327 3 gusting 5 5.3
2020-Jan-28 03:06 305 4 gusting 6 5.4
2020-Jan-28 03:00 310 3 gusting 5 5.4
2020-Jan-28 02:54 299 3 gusting 6 5.4
2020-Jan-28 02:48 312 4 gusting 7 5.4
2020-Jan-28 02:42 303 3 gusting 7 5.5
2020-Jan-28 02:36 305 4 gusting 6 5.5
2020-Jan-28 02:30 305 3 gusting 5 5.5
2020-Jan-28 02:24 308 3 gusting 4 5.6
2020-Jan-28 02:18 314 3 gusting 6 5.6
2020-Jan-28 02:12 300 5 gusting 7 5.6
2020-Jan-28 02:06 300 3 gusting 5 5.6
2020-Jan-28 02:00 323 4 gusting 7 5.7
2020-Jan-28 01:54 301 4 gusting 6 5.7
2020-Jan-28 01:48 294 4 gusting 6 5.7
2020-Jan-28 01:42 319 2 gusting 4 5.7
2020-Jan-28 01:36 298 3 gusting 5 5.7
2020-Jan-28 01:30 308 4 gusting 7 5.8
2020-Jan-28 01:24 307 4 gusting 6 5.8
2020-Jan-28 01:18 319 3 gusting 6 5.8
2020-Jan-28 01:12 317 3 gusting 6 5.9
2020-Jan-28 01:06 310 4 gusting 7 5.9
2020-Jan-28 01:00 308 6 gusting 10 5.9
2020-Jan-28 00:54 308 4 gusting 6 5.9
2020-Jan-28 00:48 322 3 gusting 5 5.9
2020-Jan-28 00:42 312 3 gusting 6 5.9
2020-Jan-28 00:36 318 4 gusting 6 6.0
2020-Jan-28 00:30 309 3 gusting 5 6.0
2020-Jan-28 00:24 299 4 gusting 6 6.0
2020-Jan-28 00:18 310 4 gusting 7 6.0
2020-Jan-28 00:12 304 3 gusting 7 6.1
2020-Jan-28 00:06 298 5 gusting 7 6.1
2020-Jan-28 00:00 299 4 gusting 8 6.1
2020-Jan-27 23:54 304 5 gusting 8 6.1
2020-Jan-27 23:48 312 5 gusting 8 6.1
2020-Jan-27 23:42 324 5 gusting 10 6.1
2020-Jan-27 23:36 319 4 gusting 7 6.1
2020-Jan-27 23:30 311 3 gusting 6 6.1
2020-Jan-27 23:24 300 3 gusting 5 6.1
2020-Jan-27 23:18 324 4 gusting 7 6.1
2020-Jan-27 23:12 316 3 gusting 5 6.0
2020-Jan-27 23:06 314 3 gusting 5 6.0
2020-Jan-27 23:00 306 2 gusting 4 5.9
2020-Jan-27 22:54 304 2 gusting 4 5.9
2020-Jan-27 22:48 313 3 gusting 6 5.9
2020-Jan-27 22:42 293 4 gusting 6 5.9
2020-Jan-27 22:36 297 3 gusting 5 5.9
2020-Jan-27 22:30 296 4 gusting 6 5.9
2020-Jan-27 22:24 293 4 gusting 5 6.0
2020-Jan-27 22:18 287 5 gusting 7 6.0
2020-Jan-27 22:12 290 3 gusting 7 6.1
2020-Jan-27 22:06 294 5 gusting 10 6.3
2020-Jan-27 22:00 300 5 gusting 8 6.3
2020-Jan-27 21:54 297 3 gusting 5 6.4
2020-Jan-27 21:48 296 3 gusting 7 6.6
2020-Jan-27 21:42 298 4 gusting 7 6.6
2020-Jan-27 21:36 300 6 gusting 9 6.7
2020-Jan-27 21:30 310 4 gusting 7 6.7
2020-Jan-27 21:24 312 6 gusting 10 6.8
2020-Jan-27 21:18 313 5 gusting 8 6.9
2020-Jan-27 21:12 300 8 gusting 14 6.9
2020-Jan-27 21:06 296 4 gusting 7 6.8
2020-Jan-27 21:00 307 8 gusting 11 7.0
2020-Jan-27 20:54 302 5 gusting 8 7.2
2020-Jan-27 20:48 312 6 gusting 11 7.2
2020-Jan-27 20:42 302 7 gusting 14 7.1
2020-Jan-27 20:36 318 5 gusting 10 7.0
2020-Jan-27 20:30 299 8 gusting 13 6.8
2020-Jan-27 20:24 301 7 gusting 12 6.6
2020-Jan-27 20:18 304 6 gusting 9 6.6
2020-Jan-27 20:12 291 11 gusting 16 6.5
2020-Jan-27 20:06 301 10 gusting 17 6.5
2020-Jan-27 20:00 314 9 gusting 14 6.6
2020-Jan-27 19:54 303 7 gusting 11 6.6
2020-Jan-27 19:48 318 6 gusting 13 6.7
2020-Jan-27 19:42 287 8 gusting 13 6.6
2020-Jan-27 19:36 293 10 gusting 15 6.6
2020-Jan-27 19:30 293 6 gusting 11 6.7
2020-Jan-27 19:24 302 8 gusting 12 6.7
2020-Jan-27 19:18 310 7 gusting 11 6.7
2020-Jan-27 19:12 293 10 gusting 14 6.6
2020-Jan-27 19:06 307 8 gusting 13 6.8
2020-Jan-27 19:00 290 7 gusting 12 6.8
2020-Jan-27 18:54 310 6 gusting 10 6.8
2020-Jan-27 18:48 324 7 gusting 11 6.7
2020-Jan-27 18:42 306 7 gusting 11 6.5
2020-Jan-27 18:36 302 5 gusting 9 6.6
2020-Jan-27 18:30 307 8 gusting 12 6.4
2020-Jan-27 18:24 296 7 gusting 10 6.5
2020-Jan-27 18:18 287 8 gusting 13 6.4
2020-Jan-27 18:12 306 8 gusting 14 6.3
2020-Jan-27 18:06 318 7 gusting 10 6.1
2020-Jan-27 18:00 303 7 gusting 12 6.1
2020-Jan-27 17:54 286 8 gusting 11 6.0
2020-Jan-27 17:48 298 5 gusting 12 6.0
2020-Jan-27 17:42 283 10 gusting 13 6.0
2020-Jan-27 17:36 302 9 gusting 12 6.0
2020-Jan-27 17:30 292 6 gusting 11 5.9
2020-Jan-27 17:24 290 10 gusting 18 5.9
2020-Jan-27 17:18 290 9 gusting 14 5.9
2020-Jan-27 17:12 301 9 gusting 13 5.9
2020-Jan-27 17:06 293 10 gusting 14 5.9
2020-Jan-27 17:00 285 9 gusting 14 5.9
2020-Jan-27 16:54 293 8 gusting 13 5.8
2020-Jan-27 16:48 298 8 gusting 13 5.9
2020-Jan-27 16:42 293 8 gusting 13 5.8
2020-Jan-27 16:36 290 8 gusting 11 5.8
2020-Jan-27 16:30 309 5 gusting 11 5.8
2020-Jan-27 16:24 284 9 gusting 12 5.8
2020-Jan-27 16:18 291 5 gusting 10 5.7
2020-Jan-27 16:12 281 7 gusting 11 5.6
2020-Jan-27 16:06 298 7 gusting 12 5.6
2020-Jan-27 16:00 279 9 gusting 13 5.6
2020-Jan-27 15:54 297 8 gusting 13 5.5
2020-Jan-27 15:48 274 6 gusting 9 5.4
2020-Jan-27 15:42 289 5 gusting 11 5.3
2020-Jan-27 15:36 284 8 gusting 12 5.1
2020-Jan-27 15:30 270 7 gusting 10 4.9
2020-Jan-27 15:24 275 8 gusting 11 4.8
2020-Jan-27 15:18 276 7 gusting 11 4.7
2020-Jan-27 15:12 273 8 gusting 11 4.6
2020-Jan-27 15:06 280 7 gusting 11 4.5
2020-Jan-27 15:00 275 7 gusting 11 4.5
2020-Jan-27 14:54 270 7 gusting 9 4.4
2020-Jan-27 14:48 288 7 gusting 11 4.3
2020-Jan-27 14:42 288 8 gusting 11 4.2
2020-Jan-27 14:36 261 6 gusting 9 4.1
2020-Jan-27 14:30 273 6 gusting 9 3.9
2020-Jan-27 14:24 273 7 gusting 9 3.8
2020-Jan-27 14:18 274 6 gusting 11 3.7
2020-Jan-27 14:12 279 7 gusting 10 3.6
2020-Jan-27 14:06 275 7 gusting 10 3.5
2020-Jan-27 14:00 273 8 gusting 11 3.3
2020-Jan-27 13:54 278 7 gusting 13 3.2
2020-Jan-27 13:48 273 7 gusting 12 3.1
2020-Jan-27 13:42 273 7 gusting 11 3.0
2020-Jan-27 13:36 270 7 gusting 10 2.9
2020-Jan-27 13:30 270 7 gusting 10 2.9
2020-Jan-27 13:24 271 7 gusting 10 2.8
2020-Jan-27 13:18 264 7 gusting 11 2.8
2020-Jan-27 13:12 266 6 gusting 9 2.8
2020-Jan-27 13:06 269 7 gusting 9 2.8
2020-Jan-27 13:00 272 6 gusting 11 2.8
2020-Jan-27 12:54 269 7 gusting 10 2.8
2020-Jan-27 12:48 273 6 gusting 8 2.8
2020-Jan-27 12:42 278 6 gusting 10 2.8
2020-Jan-27 12:36 276 7 gusting 12 2.7
2020-Jan-27 12:30 269 6 gusting 10 2.6
2020-Jan-27 12:24 275 6 gusting 10 2.6
2020-Jan-27 12:18 277 6 gusting 10 2.5
2020-Jan-27 12:12 283 6 gusting 8 2.5
2020-Jan-27 12:06 284 7 gusting 9 2.4
2020-Jan-27 12:00 275 6 gusting 9 2.4
2020-Jan-27 11:54 270 6 gusting 9 2.4
2020-Jan-27 11:48 267 6 gusting 9 2.5
2020-Jan-27 11:42 273 6 gusting 9 2.5
2020-Jan-27 11:36 275 5 gusting 7 2.6
2020-Jan-27 11:30 272 6 gusting 10 2.6
2020-Jan-27 11:24 275 5 gusting 7 2.6
2020-Jan-27 11:18 274 5 gusting 10 2.6
2020-Jan-27 11:12 270 5 gusting 9 2.6
2020-Jan-27 11:06 270 5 gusting 9 2.6
2020-Jan-27 11:00 268 5 gusting 8 2.6
2020-Jan-27 10:54 278 6 gusting 11 2.5
2020-Jan-27 10:48 281 6 gusting 9 2.5
2020-Jan-27 10:42 280 6 gusting 9 2.4
2020-Jan-27 10:36 275 6 gusting 10 2.3
2020-Jan-27 10:30 272 6 gusting 10 2.2
2020-Jan-27 10:24 274 7 gusting 10 2.2
2020-Jan-27 10:18 272 5 gusting 9 2.1
2020-Jan-27 10:12 273 6 gusting 8 2.1
2020-Jan-27 10:06 283 6 gusting 10 2.0
2020-Jan-27 10:00 285 6 gusting 9 2.0
2020-Jan-27 09:54 277 5 gusting 8 2.0
2020-Jan-27 09:48 272 5 gusting 8 2.0
2020-Jan-27 09:42 269 6 gusting 9 2.0
2020-Jan-27 09:36 277 6 gusting 8 2.0
2020-Jan-27 09:30 269 6 gusting 8 2.0
2020-Jan-27 09:24 274 4 gusting 7 2.0
2020-Jan-27 09:18 279 6 gusting 10 2.0
2020-Jan-27 09:12 269 5 gusting 8 1.9
2020-Jan-27 09:06 272 5 gusting 7 1.9
2020-Jan-27 09:00 272 5 gusting 7 1.9
2020-Jan-27 08:54 277 5 gusting 8 1.9
2020-Jan-27 08:48 273 5 gusting 8 1.8
2020-Jan-27 08:42 278 4 gusting 7 1.8
2020-Jan-27 08:36 283 3 gusting 6 1.8
2020-Jan-27 08:30 276 3 gusting 6 1.9
2020-Jan-27 08:24 285 5 gusting 7 1.9
2020-Jan-27 08:18 273 3 gusting 7 2.0
2020-Jan-27 08:12 276 5 gusting 8 2.0
2020-Jan-27 08:06 280 5 gusting 8 2.0
2020-Jan-27 08:00 273 6 gusting 8 2.0
2020-Jan-27 07:54 276 5 gusting 7 2.1
2020-Jan-27 07:48 274 5 gusting 8 2.1
2020-Jan-27 07:42 277 6 gusting 9 2.1
2020-Jan-27 07:36 275 5 gusting 10 2.2
2020-Jan-27 07:30 273 8 gusting 12 2.1
2020-Jan-27 07:24 269 6 gusting 10 2.1
2020-Jan-27 07:18 271 6 gusting 8 2.1
2020-Jan-27 07:12 267 4 gusting 6 2.1
2020-Jan-27 07:06 285 5 gusting 8 2.1
2020-Jan-27 07:00 286 5 gusting 8 2.1
2020-Jan-27 06:54 290 3 gusting 4 2.2
2020-Jan-27 06:48 293 3 gusting 5 2.2
2020-Jan-27 06:42 284 4 gusting 6 2.3
2020-Jan-27 06:36 280 4 gusting 6 2.3
2020-Jan-27 06:30 287 4 gusting 7 2.3
2020-Jan-27 06:24 287 5 gusting 7 2.4
2020-Jan-27 06:18 288 4 gusting 5 2.5
2020-Jan-27 06:12 294 4 gusting 7 2.6
2020-Jan-27 06:06 305 4 gusting 7 2.7
2020-Jan-27 06:00 303 4 gusting 7 2.7
2020-Jan-27 05:54 290 6 gusting 10 2.7
2020-Jan-27 05:48 291 6 gusting 10 2.7
2020-Jan-27 05:42 291 6 gusting 9 2.7
2020-Jan-27 05:36 291 5 gusting 8 2.7
2020-Jan-27 05:30 294 5 gusting 7 2.7
2020-Jan-27 05:24 289 4 gusting 6 2.7
2020-Jan-27 05:18 287 5 gusting 9 2.7
2020-Jan-27 05:12 287 6 gusting 9 2.7
2020-Jan-27 05:06 289 5 gusting 7 2.8
2020-Jan-27 05:00 282 5 gusting 7 2.8
2020-Jan-27 04:54 288 4 gusting 8 2.8
2020-Jan-27 04:48 286 4 gusting 5 2.9
2020-Jan-27 04:42 283 4 gusting 6 3.0
2020-Jan-27 04:36 297 4 gusting 6 3.1
2020-Jan-27 04:30 286 4 gusting 6 3.1
2020-Jan-27 04:24 290 5 gusting 7 3.1
2020-Jan-27 04:18 277 4 gusting 5 3.2
2020-Jan-27 04:12 280 5 gusting 7 3.3
2020-Jan-27 04:06 288 3 gusting 4 3.4
2020-Jan-27 04:00 293 4 gusting 5 3.5
2020-Jan-27 03:54 289 5 gusting 6 3.6
2020-Jan-27 03:48 287 4 gusting 7 3.7
2020-Jan-27 03:42 302 4 gusting 6 3.8
2020-Jan-27 03:36 292 3 gusting 5 3.8
2020-Jan-27 03:30 297 4 gusting 7 3.9
2020-Jan-27 03:24 294 3 gusting 4 3.9
2020-Jan-27 03:18 291 3 gusting 5 4.0
2020-Jan-27 03:12 292 4 gusting 7 4.1
2020-Jan-27 03:06 299 5 gusting 7 4.1
2020-Jan-27 03:00 295 4 gusting 8 4.1
2020-Jan-27 02:54 285 3 gusting 5 4.1
2020-Jan-27 02:48 286 5 gusting 7 4.2
2020-Jan-27 02:42 290 4 gusting 8 4.1
2020-Jan-27 02:36 285 4 gusting 7 4.2
2020-Jan-27 02:30 288 4 gusting 7 4.2
2020-Jan-27 02:24 296 3 gusting 5 4.3
2020-Jan-27 02:18 288 2 gusting 3 4.3
2020-Jan-27 02:12 297 2 gusting 3 4.4
2020-Jan-27 02:06 303 2 gusting 3 4.5
2020-Jan-27 02:00 314 2 gusting 3 4.6
2020-Jan-27 01:54 311 2 gusting 3 4.8
2020-Jan-27 01:48 314 2 gusting 4 4.9
2020-Jan-27 01:42 303 3 gusting 6 5.0
2020-Jan-27 01:36 325 3 gusting 7 5.1
2020-Jan-27 01:30 317 4 gusting 8 5.2
2020-Jan-27 01:24 317 6 gusting 9 5.3
2020-Jan-27 01:18 319 6 gusting 9 5.5
2020-Jan-27 01:12 316 6 gusting 9 5.6
2020-Jan-27 01:06 309 4 gusting 9 5.6
2020-Jan-27 01:00 303 5 gusting 10 5.8
2020-Jan-27 00:54 309 5 gusting 7 5.9
2020-Jan-27 00:48 298 8 gusting 13 6.1
2020-Jan-27 00:42 313 6 gusting 11 6.2
2020-Jan-27 00:36 317 3 gusting 7 6.3
2020-Jan-27 00:30 323 6 gusting 9 6.4
2020-Jan-27 00:24 317 5 gusting 8 6.4
2020-Jan-27 00:18 298 3 gusting 6 6.5
2020-Jan-27 00:12 304 7 gusting 15 6.4
2020-Jan-27 00:06 324 3 gusting 4 6.5
2020-Jan-27 00:00 309 3 gusting 6 6.5
2020-Jan-26 23:54 302 3 gusting 4 6.5
2020-Jan-26 23:48 301 3 gusting 6 6.5
2020-Jan-26 23:42 301 4 gusting 6 6.6
2020-Jan-26 23:36 306 4 gusting 8 6.6
2020-Jan-26 23:30 289 5 gusting 9 6.6
2020-Jan-26 23:24 299 4 gusting 7 6.6
2020-Jan-26 23:18 301 6 gusting 8 6.7
2020-Jan-26 23:12 287 7 gusting 10 6.7
2020-Jan-26 23:06 289 7 gusting 10 6.7
2020-Jan-26 23:00 287 5 gusting 7 6.6
2020-Jan-26 22:54 285 4 gusting 7 6.7
2020-Jan-26 22:48 277 6 gusting 9 6.7
2020-Jan-26 22:42 292 7 gusting 9 6.8
2020-Jan-26 22:36 275 5 gusting 7 6.8
2020-Jan-26 22:30 280 5 gusting 9 6.9
2020-Jan-26 22:24 288 5 gusting 9 6.9
2020-Jan-26 22:18 285 5 gusting 8 6.9
2020-Jan-26 22:12 284 5 gusting 9 7.0
2020-Jan-26 22:06 295 6 gusting 10 7.1
2020-Jan-26 22:00 300 4 gusting 8 7.1